createdAt,value
2023-01-18T00:00:45.090Z,2.33
2023-01-18T00:03:13.158Z,2.25
2023-01-18T00:05:41.120Z,2.08
2023-01-18T00:08:12.925Z,2.63
2023-01-18T00:10:39.895Z,2.15
2023-01-18T00:13:06.613Z,2.08
2023-01-18T00:15:33.496Z,2.33
2023-01-18T00:17:59.850Z,2.40
2023-01-18T00:20:27.488Z,1.98
2023-01-18T00:22:53.912Z,2.20
2023-01-18T00:25:22.538Z,2.05
2023-01-18T00:27:51.012Z,2.30
2023-01-18T00:30:20.500Z,2.08
2023-01-18T00:32:47.717Z,2.38
2023-01-18T00:35:15.337Z,2.28
2023-01-18T00:37:41.757Z,2.10
2023-01-18T00:40:09.250Z,2.28
2023-01-18T00:42:54.071Z,2.30
2023-01-18T00:45:20.474Z,2.25
2023-01-18T00:47:46.809Z,2.40
2023-01-18T00:50:13.165Z,2.20
2023-01-18T00:52:46.115Z,2.40
2023-01-18T00:55:13.875Z,2.17
2023-01-18T00:57:40.213Z,1.98
2023-01-18T01:00:09.591Z,2.20
2023-01-18T01:02:41.652Z,2.40
2023-01-18T01:05:37.661Z,2.35
2023-01-18T01:08:05.748Z,2.50
2023-01-18T01:10:33.277Z,2.40
2023-01-18T01:13:18.301Z,2.70
2023-01-18T01:16:02.942Z,2.00
2023-01-18T01:18:47.806Z,2.00
2023-01-18T01:21:32.768Z,2.10
2023-01-18T01:24:17.650Z,2.60
2023-01-18T01:26:43.983Z,2.10
2023-01-18T01:29:10.438Z,2.47
2023-01-18T01:31:38.591Z,2.20
2023-01-18T01:34:05.009Z,2.40
2023-01-18T01:36:31.382Z,2.35
2023-01-18T01:38:57.884Z,2.72
2023-01-18T01:41:27.423Z,2.80
2023-01-18T01:43:54.673Z,2.47
2023-01-18T01:46:25.488Z,2.70
2023-01-18T01:49:00.870Z,2.58
2023-01-18T01:51:27.434Z,2.40
2023-01-18T01:53:54.055Z,2.65
2023-01-18T01:56:20.853Z,2.30
2023-01-18T01:58:48.494Z,2.80
2023-01-18T02:01:14.870Z,2.78
2023-01-18T02:03:42.495Z,2.58
2023-01-18T02:06:16.232Z,2.33
2023-01-18T02:08:44.377Z,2.08
2023-01-18T02:11:10.766Z,2.60
2023-01-18T02:13:37.123Z,2.60
2023-01-18T02:16:12.621Z,2.85
2023-01-18T02:18:51.869Z,2.42
2023-01-18T02:21:19.529Z,3.05
2023-01-18T02:24:23.314Z,2.70
2023-01-18T02:27:14.159Z,3.08
2023-01-18T02:29:59.928Z,2.33
2023-01-18T02:32:56.760Z,2.70
2023-01-18T02:35:26.333Z,2.30
2023-01-18T02:38:01.575Z,2.38
2023-01-18T02:40:35.405Z,3.03
2023-01-18T02:46:08.206Z,2.40
2023-01-18T02:48:42.411Z,2.45
2023-01-18T02:51:09.462Z,2.40
2023-01-18T02:53:41.119Z,2.25
2023-01-18T02:56:14.347Z,2.92
2023-01-18T02:58:55.421Z,2.45
2023-01-18T03:01:26.563Z,2.72
2023-01-18T03:03:57.161Z,2.95
2023-01-18T03:06:24.930Z,2.80
2023-01-18T03:08:52.864Z,2.60
2023-01-18T03:11:21.665Z,2.88
2023-01-18T03:14:07.829Z,2.60
2023-01-18T03:16:57.847Z,3.38
2023-01-18T03:19:52.742Z,2.83
2023-01-18T03:22:19.314Z,3.20
2023-01-18T03:24:45.934Z,2.85
2023-01-18T03:27:31.123Z,2.65
2023-01-18T03:30:16.108Z,3.38
2023-01-18T03:33:01.470Z,3.08
2023-01-18T03:35:29.476Z,3.00
2023-01-18T03:37:58.390Z,2.90
2023-01-18T03:40:28.341Z,2.67
2023-01-18T03:43:17.633Z,2.70
2023-01-18T03:45:45.657Z,3.05
2023-01-18T03:48:12.537Z,3.00
2023-01-18T03:50:44.201Z,2.88
2023-01-18T03:53:15.333Z,3.13
2023-01-18T03:55:46.080Z,3.30
2023-01-18T03:58:15.108Z,2.78
2023-01-18T04:00:41.572Z,2.83
2023-01-18T04:03:08.145Z,3.05
2023-01-18T04:05:35.184Z,2.78
2023-01-18T04:08:01.490Z,2.90
2023-01-18T04:10:28.971Z,3.05
2023-01-18T04:12:55.524Z,2.85
2023-01-18T04:15:21.919Z,2.92
2023-01-18T04:17:53.003Z,3.03
2023-01-18T04:20:19.420Z,2.60
2023-01-18T04:22:51.470Z,2.22
2023-01-18T04:25:17.802Z,2.75
2023-01-18T04:27:44.119Z,2.78
2023-01-18T04:30:10.833Z,2.70
2023-01-18T04:32:37.236Z,2.65
2023-01-18T04:35:03.739Z,2.65
2023-01-18T04:37:30.250Z,2.50
2023-01-18T04:39:57.274Z,2.67
2023-01-18T04:42:25.561Z,2.78
2023-01-18T04:44:52.557Z,2.80
2023-01-18T04:47:19.345Z,2.42
2023-01-18T04:49:45.671Z,2.30
2023-01-18T04:52:11.995Z,2.40
2023-01-18T04:54:38.367Z,2.38
2023-01-18T04:57:04.719Z,2.60
2023-01-18T04:59:31.107Z,2.13
2023-01-18T05:01:57.585Z,2.60
2023-01-18T05:04:23.948Z,2.50
2023-01-18T05:06:50.422Z,1.88
2023-01-18T05:09:17.687Z,2.42
2023-01-18T05:11:44.048Z,2.33
2023-01-18T05:14:10.431Z,2.80
2023-01-18T05:16:36.803Z,2.33
2023-01-18T05:19:03.220Z,2.50
2023-01-18T05:21:29.632Z,2.50
2023-01-18T05:23:55.996Z,2.90
2023-01-18T05:26:23.595Z,2.63
2023-01-18T05:28:51.048Z,2.25
2023-01-18T05:31:21.121Z,2.53
2023-01-18T05:33:47.694Z,2.67
2023-01-18T05:36:14.105Z,2.28
2023-01-18T05:38:40.494Z,2.25
2023-01-18T05:41:06.901Z,2.60
2023-01-18T05:43:35.582Z,2.20
2023-01-18T05:46:02.203Z,2.47
2023-01-18T05:48:28.664Z,2.55
2023-01-18T05:50:55.053Z,2.65
2023-01-18T05:53:22.371Z,2.05
2023-01-18T05:55:59.610Z,2.53
2023-01-18T05:58:27.489Z,4.13
2023-01-18T06:00:54.373Z,4.30
2023-01-18T06:03:21.399Z,3.05
2023-01-18T06:05:48.373Z,2.28
2023-01-18T06:08:15.270Z,2.00
2023-01-18T06:10:41.612Z,2.25
2023-01-18T06:13:07.981Z,1.90
2023-01-18T06:15:34.362Z,2.10
2023-01-18T06:18:00.780Z,2.25
2023-01-18T06:20:30.381Z,2.00
2023-01-18T06:22:59.955Z,2.00
2023-01-18T06:25:26.657Z,2.03
2023-01-18T06:27:53.089Z,1.85
2023-01-18T06:30:19.798Z,2.28
2023-01-18T06:32:47.019Z,2.40
2023-01-18T06:35:13.359Z,1.92
2023-01-18T06:37:39.759Z,2.05
2023-01-18T06:40:06.560Z,1.70
2023-01-18T06:42:33.072Z,2.13
2023-01-18T06:44:59.580Z,2.20
2023-01-18T06:47:25.927Z,1.90
2023-01-18T06:49:52.304Z,2.10
2023-01-18T06:52:18.709Z,2.13
2023-01-18T06:54:45.066Z,1.75
2023-01-18T06:57:12.131Z,2.22
2023-01-18T06:59:38.769Z,2.10
2023-01-18T07:02:05.231Z,2.05
2023-01-18T07:04:42.640Z,2.00
2023-01-18T07:07:08.984Z,2.10
2023-01-18T07:09:35.387Z,2.42
2023-01-18T07:12:01.768Z,2.40
2023-01-18T07:14:28.693Z,2.22
2023-01-18T07:16:55.086Z,2.80
2023-01-18T07:19:21.478Z,2.03
2023-01-18T07:21:48.133Z,2.85
2023-01-18T07:24:14.460Z,2.45
2023-01-18T07:26:40.861Z,2.30
2023-01-18T07:29:07.255Z,2.33
2023-01-18T07:31:33.673Z,2.20
2023-01-18T07:34:00.312Z,1.88
2023-01-18T07:36:26.730Z,2.58
2023-01-18T07:38:53.082Z,2.67
2023-01-18T07:41:19.706Z,2.95
2023-01-18T07:43:46.091Z,2.63
2023-01-18T07:46:19.932Z,2.80
2023-01-18T07:48:48.301Z,2.60
2023-01-18T07:51:15.302Z,3.15
2023-01-18T07:53:41.669Z,3.38
2023-01-18T07:56:11.901Z,2.78
2023-01-18T07:58:38.594Z,3.15
2023-01-18T08:01:10.296Z,2.90
2023-01-18T08:03:37.131Z,2.90
2023-01-18T08:06:05.562Z,2.67
2023-01-18T08:08:32.003Z,2.95
2023-01-18T08:11:00.857Z,3.45
2023-01-18T08:13:27.534Z,3.28
2023-01-18T08:15:55.337Z,3.10
2023-01-18T08:18:21.950Z,3.13
2023-01-18T08:20:48.966Z,3.83
2023-01-18T08:23:16.316Z,4.00
2023-01-18T08:25:43.302Z,3.42
2023-01-18T08:28:10.031Z,3.47
2023-01-18T08:30:38.801Z,3.60
2023-01-18T08:33:05.510Z,3.05
2023-01-18T08:35:34.745Z,3.60
2023-01-18T08:38:02.172Z,3.78
2023-01-18T08:40:30.280Z,3.40
2023-01-18T08:43:01.706Z,3.55
2023-01-18T08:45:28.470Z,3.28
2023-01-18T08:48:00.502Z,4.13
2023-01-18T08:50:27.929Z,3.35
2023-01-18T08:52:54.392Z,3.70
2023-01-18T08:55:22.005Z,3.22
2023-01-18T08:57:49.094Z,3.88
2023-01-18T09:00:17.200Z,4.03
2023-01-18T09:02:43.680Z,4.18
2023-01-18T09:05:10.186Z,4.07
2023-01-18T09:07:36.690Z,4.43
2023-01-18T09:10:03.148Z,5.15
2023-01-18T09:12:29.532Z,4.68
2023-01-18T09:14:56.108Z,3.92
2023-01-18T09:17:22.422Z,4.63
2023-01-18T09:19:48.786Z,4.30
2023-01-18T09:22:15.239Z,4.05
2023-01-18T09:24:42.795Z,3.72
2023-01-18T09:27:09.285Z,3.55
2023-01-18T09:29:36.591Z,3.47
2023-01-18T09:32:03.010Z,3.58
2023-01-18T09:34:29.313Z,3.58
2023-01-18T09:36:55.655Z,3.80
2023-01-18T09:39:22.769Z,4.00
2023-01-18T09:41:52.513Z,3.83
2023-01-18T09:44:28.605Z,3.83
2023-01-18T09:47:01.963Z,3.70
2023-01-18T09:49:41.491Z,3.70
2023-01-18T09:52:26.393Z,3.78
2023-01-18T09:55:30.441Z,3.58
2023-01-18T09:58:16.583Z,3.57
2023-01-18T10:00:44.999Z,3.28
2023-01-18T10:03:19.220Z,3.70
2023-01-18T10:06:08.296Z,3.45
2023-01-18T10:08:53.665Z,3.88
2023-01-18T10:11:32.433Z,2.88
2023-01-18T10:14:00.143Z,2.90
2023-01-18T10:16:26.537Z,3.20
2023-01-18T10:18:57.154Z,2.67
2023-01-18T10:21:47.476Z,2.30
2023-01-18T10:24:20.732Z,2.80
2023-01-18T10:26:48.304Z,2.35
2023-01-18T10:29:22.245Z,2.13
2023-01-18T10:34:24.295Z,2.67
2023-01-18T10:37:14.730Z,2.03
2023-01-18T10:39:47.931Z,2.05
2023-01-18T10:42:22.737Z,2.00
2023-01-18T10:44:49.320Z,1.92
2023-01-18T10:47:19.908Z,2.25
2023-01-18T10:49:48.368Z,1.85
2023-01-18T10:52:30.647Z,2.00
2023-01-18T10:54:58.194Z,1.70
2023-01-18T10:57:31.634Z,1.90
2023-01-18T10:59:59.537Z,1.90
2023-01-18T11:02:31.596Z,1.88
2023-01-18T11:05:01.528Z,2.15
2023-01-18T11:07:29.211Z,1.80
2023-01-18T11:10:01.482Z,1.70
2023-01-18T11:12:48.449Z,1.90
2023-01-18T11:15:14.766Z,2.15
2023-01-18T11:17:45.087Z,2.55
2023-01-18T11:20:19.069Z,2.70
2023-01-18T11:25:41.609Z,3.35
2023-01-18T11:28:20.157Z,3.72
2023-01-18T11:31:13.712Z,3.90
2023-01-18T11:33:52.108Z,3.88
2023-01-18T11:36:19.419Z,4.10
2023-01-18T11:38:46.344Z,4.20
2023-01-18T11:41:20.690Z,4.53
2023-01-18T11:44:01.659Z,4.82
2023-01-18T11:46:49.208Z,5.97
2023-01-18T11:49:31.984Z,5.25
2023-01-18T11:52:02.764Z,5.50
2023-01-18T11:54:36.902Z,5.55
2023-01-18T11:57:03.840Z,5.80
2023-01-18T11:59:45.048Z,5.40
2023-01-18T12:02:30.714Z,5.72
2023-01-18T12:05:16.446Z,5.35
2023-01-18T12:08:11.961Z,5.43
2023-01-18T12:10:52.032Z,5.30
2023-01-18T12:13:42.537Z,6.57
2023-01-18T12:16:21.985Z,6.60
2023-01-18T12:19:06.724Z,7.15
2023-01-18T12:21:47.505Z,6.70
2023-01-18T12:24:38.181Z,7.78
2023-01-18T12:27:13.485Z,7.35
2023-01-18T12:29:54.834Z,8.38
2023-01-18T12:32:37.573Z,8.13
2023-01-18T12:35:23.611Z,7.20
2023-01-18T12:38:18.301Z,8.77
2023-01-18T12:41:29.905Z,7.75
2023-01-18T12:44:22.048Z,7.43
2023-01-18T12:47:03.989Z,8.48
2023-01-18T12:49:34.185Z,6.95
2023-01-18T12:52:17.763Z,6.88
2023-01-18T12:54:50.426Z,6.22
2023-01-18T12:57:18.215Z,6.68
2023-01-18T13:00:06.300Z,6.90
2023-01-18T13:02:35.282Z,6.43
2023-01-18T13:05:04.539Z,6.40
2023-01-18T13:07:35.826Z,6.90
2023-01-18T13:10:02.644Z,6.70
2023-01-18T13:12:29.383Z,6.07
2023-01-18T13:15:27.986Z,6.40
2023-01-18T13:18:09.440Z,5.53
2023-01-18T13:20:41.876Z,6.43
2023-01-18T13:23:26.914Z,6.28
2023-01-18T13:26:16.734Z,6.07
2023-01-18T13:28:44.007Z,5.63
2023-01-18T13:31:10.509Z,5.78
2023-01-18T13:33:40.650Z,5.70
2023-01-18T13:36:09.294Z,5.90
2023-01-18T13:38:41.582Z,5.65
2023-01-18T13:41:15.059Z,5.65
2023-01-18T13:43:41.770Z,5.37
2023-01-18T13:46:08.177Z,5.00
2023-01-18T13:49:01.572Z,4.90
2023-01-18T13:51:40.281Z,5.65
2023-01-18T13:54:07.956Z,5.15
2023-01-18T13:56:36.542Z,6.32
2023-01-18T13:59:12.085Z,5.18
2023-01-18T14:01:42.985Z,5.45
2023-01-18T14:04:29.977Z,5.97
2023-01-18T14:06:59.344Z,6.53
2023-01-18T14:09:39.791Z,7.07
2023-01-18T14:12:06.735Z,7.72
2023-01-18T14:14:52.257Z,6.75
2023-01-18T14:17:18.755Z,6.85
2023-01-18T14:19:47.991Z,7.80
2023-01-18T14:22:25.427Z,6.47
2023-01-18T14:25:27.636Z,7.05
2023-01-18T14:28:09.128Z,7.30
2023-01-18T14:30:37.000Z,7.32
2023-01-18T14:33:11.798Z,8.65
2023-01-18T14:35:38.777Z,7.88
2023-01-18T14:38:17.513Z,7.50
2023-01-18T14:40:47.608Z,8.35
2023-01-18T14:43:18.803Z,7.30
2023-01-18T14:45:55.125Z,7.53
2023-01-18T14:48:23.146Z,7.93
2023-01-18T14:50:52.499Z,7.90
2023-01-18T14:53:30.373Z,9.27
2023-01-18T14:56:10.870Z,8.68
2023-01-18T14:58:42.501Z,9.02
2023-01-18T15:01:30.530Z,8.82
2023-01-18T15:03:59.593Z,8.30
2023-01-18T15:06:35.236Z,8.20
2023-01-18T15:09:05.029Z,7.93
2023-01-18T15:11:31.822Z,17.98
2023-01-18T15:13:58.529Z,18.38
2023-01-18T15:16:27.159Z,12.32
2023-01-18T15:18:55.292Z,10.60
2023-01-18T15:21:24.819Z,10.55
2023-01-18T15:23:53.182Z,9.45
2023-01-18T15:26:37.225Z,10.05
2023-01-18T15:29:17.621Z,10.32
2023-01-18T15:32:05.995Z,11.45
2023-01-18T15:34:35.477Z,12.10
2023-01-18T15:37:04.290Z,16.63
2023-01-18T15:39:32.650Z,15.55
2023-01-18T15:42:04.103Z,14.57
2023-01-18T15:44:43.502Z,24.10
2023-01-18T15:47:19.975Z,18.08
2023-01-18T15:49:48.855Z,15.88
2023-01-18T15:52:16.146Z,12.60
2023-01-18T15:54:42.899Z,12.88
2023-01-18T15:57:19.414Z,17.55
2023-01-18T15:59:47.464Z,12.57
2023-01-18T16:02:18.755Z,11.70
2023-01-18T16:04:45.975Z,11.40
2023-01-18T16:07:25.712Z,10.48
2023-01-18T16:10:16.804Z,10.70
2023-01-18T16:12:44.212Z,11.70
2023-01-18T16:15:25.131Z,10.40
2023-01-18T16:18:01.039Z,11.68
2023-01-18T16:20:29.850Z,10.13
2023-01-18T16:23:02.972Z,9.80
2023-01-18T16:25:29.489Z,10.40
2023-01-18T16:27:58.009Z,8.95
2023-01-18T16:30:34.061Z,9.77
2023-01-18T16:33:13.063Z,9.20
2023-01-18T16:35:41.685Z,9.73
2023-01-18T16:38:12.089Z,9.23
2023-01-18T16:40:39.823Z,9.45
2023-01-18T16:43:19.913Z,8.95
2023-01-18T16:45:48.429Z,9.20
2023-01-18T16:48:20.064Z,9.70
2023-01-18T16:50:48.565Z,9.77
2023-01-18T16:53:15.122Z,9.82
2023-01-18T16:55:43.979Z,9.82
2023-01-18T16:58:12.403Z,9.32
2023-01-18T17:00:49.052Z,8.88
2023-01-18T17:03:15.486Z,9.98
2023-01-18T17:05:41.856Z,8.93
2023-01-18T17:08:13.716Z,9.27
2023-01-18T17:10:42.515Z,9.32
2023-01-18T17:13:09.501Z,9.88
2023-01-18T17:15:35.857Z,9.75
2023-01-18T17:18:03.196Z,8.98
2023-01-18T17:20:30.232Z,9.40
2023-01-18T17:22:57.116Z,9.57
2023-01-18T17:25:24.040Z,10.02
2023-01-18T17:27:50.902Z,9.82
2023-01-18T17:30:20.422Z,9.50
2023-01-18T17:32:46.946Z,10.23
2023-01-18T17:35:14.952Z,10.15
2023-01-18T17:37:41.344Z,10.48
2023-01-18T17:40:17.118Z,11.45
2023-01-18T17:42:46.751Z,9.95
2023-01-18T17:45:16.266Z,8.82
2023-01-18T17:47:43.304Z,10.23
2023-01-18T17:50:12.624Z,9.20
2023-01-18T17:52:40.008Z,9.98
2023-01-18T17:55:08.192Z,9.60
2023-01-18T17:57:34.704Z,9.50
2023-01-18T18:00:01.228Z,9.45
2023-01-18T18:02:27.877Z,10.13
2023-01-18T18:04:55.635Z,10.65
2023-01-18T18:07:22.099Z,10.10
2023-01-18T18:09:48.500Z,11.43
2023-01-18T18:12:14.893Z,11.95
2023-01-18T18:14:41.248Z,11.38
2023-01-18T18:17:08.126Z,14.32
2023-01-18T18:19:34.506Z,13.20
2023-01-18T18:22:01.249Z,12.60
2023-01-18T18:24:27.848Z,12.98
2023-01-18T18:26:54.255Z,10.43
2023-01-18T18:29:20.658Z,17.27
2023-01-18T18:31:47.483Z,22.35
2023-01-18T18:34:13.831Z,16.15
2023-01-18T18:36:40.762Z,14.95
2023-01-18T18:39:08.118Z,13.25
2023-01-18T18:41:34.518Z,12.35
2023-01-18T18:44:00.919Z,12.10
2023-01-18T18:46:27.318Z,11.38
2023-01-18T18:48:54.839Z,10.30
2023-01-18T18:51:23.605Z,9.50
2023-01-18T18:53:50.108Z,10.15
2023-01-18T18:56:16.646Z,9.40
2023-01-18T18:58:43.168Z,9.75
2023-01-18T19:01:22.141Z,9.98
2023-01-18T19:03:49.447Z,9.20
2023-01-18T19:06:15.951Z,9.02
2023-01-18T19:08:42.269Z,9.05
2023-01-18T19:11:09.135Z,9.35
2023-01-18T19:13:35.879Z,9.70
2023-01-18T19:16:02.297Z,7.85
2023-01-18T19:18:29.056Z,9.02
2023-01-18T19:20:55.451Z,8.85
2023-01-18T19:23:22.223Z,8.57
2023-01-18T19:25:48.917Z,9.98
2023-01-18T19:28:15.954Z,8.63
2023-01-18T19:30:43.440Z,8.60
2023-01-18T19:33:11.259Z,9.45
2023-01-18T19:35:42.599Z,8.52
2023-01-18T19:38:09.546Z,9.88
2023-01-18T19:40:36.450Z,9.38
2023-01-18T19:43:03.346Z,10.05
2023-01-18T19:45:30.888Z,10.02
2023-01-18T19:47:59.452Z,9.70
2023-01-18T19:50:28.166Z,9.93
2023-01-18T19:52:54.693Z,9.90
2023-01-18T19:55:21.500Z,10.45
2023-01-18T19:57:48.748Z,9.32
2023-01-18T20:00:18.045Z,9.52
2023-01-18T20:02:44.497Z,9.85
2023-01-18T20:05:10.989Z,9.70
2023-01-18T20:07:38.991Z,10.27
2023-01-18T20:10:06.078Z,9.57
2023-01-18T20:12:32.551Z,10.38
2023-01-18T20:14:58.985Z,10.23
2023-01-18T20:17:26.014Z,10.57
2023-01-18T20:19:53.946Z,10.70
2023-01-18T20:22:21.410Z,12.95
2023-01-18T20:24:47.737Z,11.85
2023-01-18T20:27:16.727Z,11.45
2023-01-18T20:29:44.071Z,12.43
2023-01-18T20:32:16.205Z,11.95
2023-01-18T20:34:44.487Z,11.03
2023-01-18T20:37:12.120Z,11.35
2023-01-18T20:39:38.975Z,12.23
2023-01-18T20:42:05.494Z,13.13
2023-01-18T20:44:32.019Z,11.82
2023-01-18T20:46:58.422Z,12.35
2023-01-18T20:49:36.955Z,12.27
2023-01-18T20:52:05.016Z,12.02
2023-01-18T20:54:31.383Z,12.57
2023-01-18T20:56:58.651Z,11.90
2023-01-18T20:59:25.040Z,10.43
2023-01-18T21:01:51.486Z,11.77
2023-01-18T21:04:17.951Z,12.70
2023-01-18T21:06:44.731Z,11.82
2023-01-18T21:09:11.083Z,13.27
2023-01-18T21:11:37.755Z,12.55
2023-01-18T21:14:04.201Z,13.77
2023-01-18T21:16:30.600Z,11.70
2023-01-18T21:18:59.271Z,11.43
2023-01-18T21:21:29.993Z,11.77
2023-01-18T21:23:56.317Z,11.73
2023-01-18T21:26:22.797Z,11.60
2023-01-18T21:28:49.185Z,11.50
2023-01-18T21:31:15.679Z,10.38
2023-01-18T21:33:42.615Z,11.20
2023-01-18T21:36:12.358Z,10.57
2023-01-18T21:38:38.785Z,11.75
2023-01-18T21:41:24.045Z,9.77
2023-01-18T21:44:11.444Z,10.43
2023-01-18T21:46:38.973Z,11.50
2023-01-18T21:49:06.505Z,10.57
2023-01-18T21:51:51.940Z,10.70
2023-01-18T21:54:18.538Z,10.50
2023-01-18T21:56:46.115Z,11.57
2023-01-18T21:59:13.750Z,10.95
2023-01-18T22:01:44.620Z,11.40
2023-01-18T22:04:31.874Z,11.65
2023-01-18T22:06:59.245Z,11.52
2023-01-18T22:09:29.704Z,11.23
2023-01-18T22:11:57.116Z,11.50
2023-01-18T22:14:24.184Z,11.45
2023-01-18T22:16:50.651Z,10.10
2023-01-18T22:19:18.954Z,11.05
2023-01-18T22:21:45.468Z,11.43
2023-01-18T22:24:12.167Z,12.30
2023-01-18T22:26:39.060Z,11.13
2023-01-18T22:29:06.625Z,11.45
2023-01-18T22:31:33.336Z,11.55
2023-01-18T22:33:59.961Z,13.25
2023-01-18T22:36:26.315Z,12.20
2023-01-18T22:38:53.898Z,12.23
2023-01-18T22:41:25.466Z,12.52
2023-01-18T22:43:51.875Z,12.88
2023-01-18T22:46:19.489Z,13.82
2023-01-18T22:48:46.396Z,13.48
2023-01-18T22:51:18.039Z,14.07
2023-01-18T22:53:44.563Z,13.70
2023-01-18T22:56:16.336Z,14.27
2023-01-18T22:58:42.817Z,13.57
2023-01-18T23:01:15.702Z,13.43
2023-01-18T23:03:42.173Z,13.80
2023-01-18T23:06:08.618Z,14.30
2023-01-18T23:08:54.214Z,14.07
2023-01-18T23:11:23.062Z,13.05
2023-01-18T23:14:14.764Z,13.18
2023-01-18T23:17:01.006Z,13.40
2023-01-18T23:19:29.588Z,13.38
2023-01-18T23:21:56.959Z,13.88
2023-01-18T23:24:23.550Z,13.68
2023-01-18T23:26:50.403Z,13.85
2023-01-18T23:29:17.082Z,13.68
2023-01-18T23:31:43.472Z,12.85
2023-01-18T23:34:10.362Z,14.75
2023-01-18T23:36:36.759Z,14.13
2023-01-18T23:39:22.589Z,14.00
2023-01-18T23:42:07.530Z,13.95
2023-01-18T23:44:52.392Z,13.65
2023-01-18T23:47:37.437Z,12.77
2023-01-18T23:50:22.819Z,13.55
2023-01-18T23:53:07.901Z,13.10
2023-01-18T23:55:35.637Z,13.32
2023-01-18T23:58:02.384Z,13.90
